sensor_id;sensor_type;location;lat;lon;timestamp;temperature;humidity
14093;DHT22;7123;49.468;10.992;2022-07-04T00:00:13;27.40;99.00
14093;DHT22;7123;49.468;10.992;2022-07-04T00:02:41;27.40;99.20
14093;DHT22;7123;49.468;10.992;2022-07-04T00:05:09;27.20;99.70
14093;DHT22;7123;49.468;10.992;2022-07-04T00:07:40;27.20;99.80
14093;DHT22;7123;49.468;10.992;2022-07-04T00:10:08;27.10;99.90
14093;DHT22;7123;49.468;10.992;2022-07-04T00:12:35;27.00;99.90
14093;DHT22;7123;49.468;10.992;2022-07-04T00:15:04;27.00;99.90
14093;DHT22;7123;49.468;10.992;2022-07-04T00:17:31;26.90;99.90
14093;DHT22;7123;49.468;10.992;2022-07-04T00:19:58;26.80;99.90
14093;DHT22;7123;49.468;10.992;2022-07-04T00:22:24;26.70;99.90
14093;DHT22;7123;49.468;10.992;2022-07-04T00:24:51;26.80;99.90
14093;DHT22;7123;49.468;10.992;2022-07-04T00:27:18;26.70;99.90
14093;DHT22;7123;49.468;10.992;2022-07-04T00:29:45;26.70;99.90
14093;DHT22;7123;49.468;10.992;2022-07-04T00:32:11;26.70;99.90
14093;DHT22;7123;49.468;10.992;2022-07-04T00:34:38;26.60;99.90
14093;DHT22;7123;49.468;10.992;2022-07-04T00:37:05;26.60;99.90
14093;DHT22;7123;49.468;10.992;2022-07-04T00:39:31;26.50;99.90
14093;DHT22;7123;49.468;10.992;2022-07-04T00:42:04;26.50;99.90
14093;DHT22;7123;49.468;10.992;2022-07-04T00:44:31;26.40;99.90
14093;DHT22;7123;49.468;10.992;2022-07-04T00:47:05;26.50;99.90
14093;DHT22;7123;49.468;10.992;2022-07-04T00:49:32;26.50;99.90
14093;DHT22;7123;49.468;10.992;2022-07-04T00:52:00;26.50;99.90
14093;DHT22;7123;49.468;10.992;2022-07-04T00:54:30;26.50;99.90
14093;DHT22;7123;49.468;10.992;2022-07-04T00:56:57;26.50;99.90
14093;DHT22;7123;49.468;10.992;2022-07-04T00:59:24;26.50;99.90
14093;DHT22;7123;49.468;10.992;2022-07-04T01:01:51;26.50;99.90
14093;DHT22;7123;49.468;10.992;2022-07-04T01:04:18;26.50;99.90
14093;DHT22;7123;49.468;10.992;2022-07-04T01:06:45;26.50;99.90
14093;DHT22;7123;49.468;10.992;2022-07-04T01:09:12;26.40;99.90
14093;DHT22;7123;49.468;10.992;2022-07-04T01:11:39;26.30;99.90
14093;DHT22;7123;49.468;10.992;2022-07-04T01:14:06;26.10;99.90
14093;DHT22;7123;49.468;10.992;2022-07-04T01:16:34;26.10;99.90
14093;DHT22;7123;49.468;10.992;2022-07-04T01:19:01;26.00;99.90
14093;DHT22;7123;49.468;10.992;2022-07-04T01:21:27;26.00;99.90
14093;DHT22;7123;49.468;10.992;2022-07-04T01:23:54;26.00;99.90
14093;DHT22;7123;49.468;10.992;2022-07-04T01:26:21;26.00;99.90
14093;DHT22;7123;49.468;10.992;2022-07-04T01:28:49;26.10;99.90
14093;DHT22;7123;49.468;10.992;2022-07-04T01:31:15;26.10;99.90
14093;DHT22;7123;49.468;10.992;2022-07-04T01:33:42;26.10;99.90
14093;DHT22;7123;49.468;10.992;2022-07-04T01:36:09;26.10;99.90
14093;DHT22;7123;49.468;10.992;2022-07-04T01:38:35;26.10;99.90
14093;DHT22;7123;49.468;10.992;2022-07-04T01:41:02;26.10;99.90
14093;DHT22;7123;49.468;10.992;2022-07-04T01:43:29;26.10;99.90
14093;DHT22;7123;49.468;10.992;2022-07-04T01:45:55;26.10;99.90
14093;DHT22;7123;49.468;10.992;2022-07-04T01:48:22;26.10;99.90
14093;DHT22;7123;49.468;10.992;2022-07-04T01:50:49;26.10;99.90
14093;DHT22;7123;49.468;10.992;2022-07-04T01:53:15;26.10;99.90
14093;DHT22;7123;49.468;10.992;2022-07-04T01:55:42;26.10;99.90
14093;DHT22;7123;49.468;10.992;2022-07-04T01:58:09;26.10;99.90
14093;DHT22;7123;49.468;10.992;2022-07-04T02:00:35;26.10;99.90
14093;DHT22;7123;49.468;10.992;2022-07-04T02:03:20;26.10;99.90
14093;DHT22;7123;49.468;10.992;2022-07-04T02:05:47;26.20;99.90
14093;DHT22;7123;49.468;10.992;2022-07-04T02:08:14;26.20;99.90
14093;DHT22;7123;49.468;10.992;2022-07-04T02:10:40;26.10;99.90
14093;DHT22;7123;49.468;10.992;2022-07-04T02:13:07;26.10;99.90
14093;DHT22;7123;49.468;10.992;2022-07-04T02:15:37;25.90;99.90
14093;DHT22;7123;49.468;10.992;2022-07-04T02:18:06;25.70;99.90
14093;DHT22;7123;49.468;10.992;2022-07-04T02:20:33;25.70;99.90
14093;DHT22;7123;49.468;10.992;2022-07-04T02:23:01;25.70;99.90
14093;DHT22;7123;49.468;10.992;2022-07-04T02:25:28;25.70;99.90
14093;DHT22;7123;49.468;10.992;2022-07-04T02:27:56;25.80;99.90
14093;DHT22;7123;49.468;10.992;2022-07-04T02:30:23;25.90;99.90
14093;DHT22;7123;49.468;10.992;2022-07-04T02:32:50;26.00;99.90
14093;DHT22;7123;49.468;10.992;2022-07-04T02:35:17;25.90;99.90
14093;DHT22;7123;49.468;10.992;2022-07-04T02:37:44;26.00;99.90
14093;DHT22;7123;49.468;10.992;2022-07-04T02:40:10;25.90;99.90
14093;DHT22;7123;49.468;10.992;2022-07-04T02:42:37;25.70;99.90
14093;DHT22;7123;49.468;10.992;2022-07-04T02:45:05;25.70;99.90
14093;DHT22;7123;49.468;10.992;2022-07-04T02:47:32;25.70;99.90
14093;DHT22;7123;49.468;10.992;2022-07-04T02:49:58;25.70;99.90
14093;DHT22;7123;49.468;10.992;2022-07-04T02:52:28;25.60;99.90
14093;DHT22;7123;49.468;10.992;2022-07-04T02:54:56;25.40;99.90
14093;DHT22;7123;49.468;10.992;2022-07-04T02:57:22;25.20;99.90
14093;DHT22;7123;49.468;10.992;2022-07-04T02:59:49;25.20;99.90
14093;DHT22;7123;49.468;10.992;2022-07-04T03:02:16;25.20;99.90
14093;DHT22;7123;49.468;10.992;2022-07-04T03:04:42;25.10;99.90
14093;DHT22;7123;49.468;10.992;2022-07-04T03:07:10;25.00;99.90
14093;DHT22;7123;49.468;10.992;2022-07-04T03:09:37;24.90;99.90
14093;DHT22;7123;49.468;10.992;2022-07-04T03:12:04;24.60;99.90
14093;DHT22;7123;49.468;10.992;2022-07-04T03:14:31;24.40;99.90
14093;DHT22;7123;49.468;10.992;2022-07-04T03:16:57;24.10;99.90
14093;DHT22;7123;49.468;10.992;2022-07-04T03:19:24;23.50;99.90
14093;DHT22;7123;49.468;10.992;2022-07-04T03:21:51;23.00;99.90
14093;DHT22;7123;49.468;10.992;2022-07-04T03:24:17;22.50;99.90
14093;DHT22;7123;49.468;10.992;2022-07-04T03:26:44;22.30;99.90
14093;DHT22;7123;49.468;10.992;2022-07-04T03:29:11;22.10;99.90
14093;DHT22;7123;49.468;10.992;2022-07-04T03:31:37;22.00;99.90
14093;DHT22;7123;49.468;10.992;2022-07-04T03:34:04;21.90;99.90
14093;DHT22;7123;49.468;10.992;2022-07-04T03:36:31;21.80;99.90
14093;DHT22;7123;49.468;10.992;2022-07-04T03:38:57;21.70;99.90
14093;DHT22;7123;49.468;10.992;2022-07-04T03:41:24;21.60;99.90
14093;DHT22;7123;49.468;10.992;2022-07-04T03:43:51;21.50;99.90
14093;DHT22;7123;49.468;10.992;2022-07-04T03:46:17;21.40;99.90
14093;DHT22;7123;49.468;10.992;2022-07-04T03:48:44;21.30;99.90
14093;DHT22;7123;49.468;10.992;2022-07-04T03:51:12;21.30;99.90
14093;DHT22;7123;49.468;10.992;2022-07-04T03:53:39;21.20;99.90
14093;DHT22;7123;49.468;10.992;2022-07-04T03:56:05;21.10;99.90
14093;DHT22;7123;49.468;10.992;2022-07-04T03:58:32;21.00;99.90
14093;DHT22;7123;49.468;10.992;2022-07-04T04:00:59;21.00;99.90
14093;DHT22;7123;49.468;10.992;2022-07-04T04:03:26;21.00;99.90
14093;DHT22;7123;49.468;10.992;2022-07-04T04:06:11;21.00;99.90
14093;DHT22;7123;49.468;10.992;2022-07-04T04:08:38;21.00;99.90
14093;DHT22;7123;49.468;10.992;2022-07-04T04:11:06;21.10;99.90
14093;DHT22;7123;49.468;10.992;2022-07-04T04:13:33;21.10;99.90
14093;DHT22;7123;49.468;10.992;2022-07-04T04:15:59;21.30;99.90
14093;DHT22;7123;49.468;10.992;2022-07-04T04:18:26;21.30;99.90
14093;DHT22;7123;49.468;10.992;2022-07-04T04:20:53;21.60;99.90
14093;DHT22;7123;49.468;10.992;2022-07-04T04:23:19;21.60;99.90
14093;DHT22;7123;49.468;10.992;2022-07-04T04:25:47;21.60;99.90
14093;DHT22;7123;49.468;10.992;2022-07-04T04:28:21;21.80;99.90
14093;DHT22;7123;49.468;10.992;2022-07-04T04:30:48;21.90;99.90
14093;DHT22;7123;49.468;10.992;2022-07-04T04:33:15;21.80;99.90
14093;DHT22;7123;49.468;10.992;2022-07-04T04:35:41;22.00;99.90
14093;DHT22;7123;49.468;10.992;2022-07-04T04:38:08;22.10;99.90
14093;DHT22;7123;49.468;10.992;2022-07-04T04:40:35;22.00;99.90
14093;DHT22;7123;49.468;10.992;2022-07-04T04:43:02;21.80;99.90
14093;DHT22;7123;49.468;10.992;2022-07-04T04:45:29;21.70;99.90
14093;DHT22;7123;49.468;10.992;2022-07-04T04:47:56;21.50;99.90
14093;DHT22;7123;49.468;10.992;2022-07-04T04:50:22;21.40;99.90
14093;DHT22;7123;49.468;10.992;2022-07-04T04:52:49;21.40;99.90
14093;DHT22;7123;49.468;10.992;2022-07-04T04:55:16;21.40;99.90
14093;DHT22;7123;49.468;10.992;2022-07-04T04:57:42;21.30;99.90
14093;DHT22;7123;49.468;10.992;2022-07-04T05:00:09;21.30;99.90
14093;DHT22;7123;49.468;10.992;2022-07-04T05:02:36;21.30;99.90
14093;DHT22;7123;49.468;10.992;2022-07-04T05:05:04;21.40;99.90
14093;DHT22;7123;49.468;10.992;2022-07-04T05:07:31;21.60;99.90
14093;DHT22;7123;49.468;10.992;2022-07-04T05:09:58;21.70;99.90
14093;DHT22;7123;49.468;10.992;2022-07-04T05:12:26;21.70;99.90
14093;DHT22;7123;49.468;10.992;2022-07-04T05:14:53;21.80;99.90
14093;DHT22;7123;49.468;10.992;2022-07-04T05:17:20;21.80;99.90
14093;DHT22;7123;49.468;10.992;2022-07-04T05:19:47;21.80;99.90
14093;DHT22;7123;49.468;10.992;2022-07-04T05:22:15;21.70;99.90
14093;DHT22;7123;49.468;10.992;2022-07-04T05:24:41;21.60;99.90
14093;DHT22;7123;49.468;10.992;2022-07-04T05:27:09;21.70;99.90
14093;DHT22;7123;49.468;10.992;2022-07-04T05:29:36;21.80;99.90
14093;DHT22;7123;49.468;10.992;2022-07-04T05:32:05;21.90;99.90
14093;DHT22;7123;49.468;10.992;2022-07-04T05:34:31;22.10;99.90
14093;DHT22;7123;49.468;10.992;2022-07-04T05:36:58;22.00;99.90
14093;DHT22;7123;49.468;10.992;2022-07-04T05:39:25;22.00;99.90
14093;DHT22;7123;49.468;10.992;2022-07-04T05:41:51;22.10;99.90
14093;DHT22;7123;49.468;10.992;2022-07-04T05:44:19;22.10;99.90
14093;DHT22;7123;49.468;10.992;2022-07-04T05:46:45;21.80;99.90
14093;DHT22;7123;49.468;10.992;2022-07-04T05:49:12;21.80;99.90
14093;DHT22;7123;49.468;10.992;2022-07-04T05:51:39;21.80;99.90
14093;DHT22;7123;49.468;10.992;2022-07-04T05:54:06;22.00;99.90
14093;DHT22;7123;49.468;10.992;2022-07-04T05:56:32;22.10;99.90
14093;DHT22;7123;49.468;10.992;2022-07-04T05:58:59;22.10;99.90
14093;DHT22;7123;49.468;10.992;2022-07-04T06:01:26;22.00;99.90
14093;DHT22;7123;49.468;10.992;2022-07-04T06:03:52;22.00;99.90
14093;DHT22;7123;49.468;10.992;2022-07-04T06:06:19;22.00;99.90
14093;DHT22;7123;49.468;10.992;2022-07-04T06:08:46;22.00;99.90
14093;DHT22;7123;49.468;10.992;2022-07-04T06:11:12;21.90;99.90
14093;DHT22;7123;49.468;10.992;2022-07-04T06:13:40;21.90;99.90
14093;DHT22;7123;49.468;10.992;2022-07-04T06:16:07;21.90;99.90
14093;DHT22;7123;49.468;10.992;2022-07-04T06:18:34;21.90;99.90
14093;DHT22;7123;49.468;10.992;2022-07-04T06:21:01;21.90;99.90
14093;DHT22;7123;49.468;10.992;2022-07-04T06:23:28;21.90;99.90
14093;DHT22;7123;49.468;10.992;2022-07-04T06:25:54;21.80;99.90
14093;DHT22;7123;49.468;10.992;2022-07-04T06:28:21;21.80;99.90
14093;DHT22;7123;49.468;10.992;2022-07-04T06:31:08;21.90;99.90
14093;DHT22;7123;49.468;10.992;2022-07-04T06:33:35;22.30;99.90
14093;DHT22;7123;49.468;10.992;2022-07-04T06:36:21;22.50;99.90
14093;DHT22;7123;49.468;10.992;2022-07-04T06:38:48;22.60;99.90
14093;DHT22;7123;49.468;10.992;2022-07-04T06:41:15;22.50;99.90
14093;DHT22;7123;49.468;10.992;2022-07-04T06:43:41;22.40;99.90
14093;DHT22;7123;49.468;10.992;2022-07-04T06:46:08;22.40;99.90
14093;DHT22;7123;49.468;10.992;2022-07-04T06:48:35;22.30;99.90
14093;DHT22;7123;49.468;10.992;2022-07-04T06:51:02;22.30;99.90
14093;DHT22;7123;49.468;10.992;2022-07-04T06:53:29;22.30;99.90
14093;DHT22;7123;49.468;10.992;2022-07-04T06:55:56;22.60;99.90
14093;DHT22;7123;49.468;10.992;2022-07-04T06:58:23;22.60;99.90
14093;DHT22;7123;49.468;10.992;2022-07-04T07:00:49;22.80;99.90
14093;DHT22;7123;49.468;10.992;2022-07-04T07:03:16;23.00;99.90
14093;DHT22;7123;49.468;10.992;2022-07-04T07:05:43;23.20;99.90
14093;DHT22;7123;49.468;10.992;2022-07-04T07:08:27;23.40;99.90
14093;DHT22;7123;49.468;10.992;2022-07-04T07:10:55;23.40;99.90
14093;DHT22;7123;49.468;10.992;2022-07-04T07:13:22;23.30;99.90
14093;DHT22;7123;49.468;10.992;2022-07-04T07:15:48;23.10;99.90
14093;DHT22;7123;49.468;10.992;2022-07-04T07:18:15;23.10;99.90
14093;DHT22;7123;49.468;10.992;2022-07-04T07:20:43;23.20;99.90
14093;DHT22;7123;49.468;10.992;2022-07-04T07:23:10;23.20;99.90
14093;DHT22;7123;49.468;10.992;2022-07-04T07:25:36;23.10;99.90
14093;DHT22;7123;49.468;10.992;2022-07-04T07:28:03;23.10;99.90
14093;DHT22;7123;49.468;10.992;2022-07-04T07:30:30;23.00;99.90
14093;DHT22;7123;49.468;10.992;2022-07-04T07:32:57;22.90;99.90
14093;DHT22;7123;49.468;10.992;2022-07-04T07:35:23;23.00;99.90
14093;DHT22;7123;49.468;10.992;2022-07-04T07:37:50;23.20;99.90
14093;DHT22;7123;49.468;10.992;2022-07-04T07:40:17;23.40;99.90
14093;DHT22;7123;49.468;10.992;2022-07-04T07:42:43;23.60;99.90
14093;DHT22;7123;49.468;10.992;2022-07-04T07:45:10;23.60;99.90
14093;DHT22;7123;49.468;10.992;2022-07-04T07:47:37;23.40;99.90
14093;DHT22;7123;49.468;10.992;2022-07-04T07:50:04;23.40;99.90
14093;DHT22;7123;49.468;10.992;2022-07-04T07:52:31;23.30;99.90
14093;DHT22;7123;49.468;10.992;2022-07-04T07:54:58;23.30;99.90
14093;DHT22;7123;49.468;10.992;2022-07-04T07:57:27;23.20;99.90
14093;DHT22;7123;49.468;10.992;2022-07-04T07:59:54;23.30;99.90
14093;DHT22;7123;49.468;10.992;2022-07-04T08:02:21;23.30;99.90
14093;DHT22;7123;49.468;10.992;2022-07-04T08:05:09;23.40;99.90
14093;DHT22;7123;49.468;10.992;2022-07-04T08:07:36;23.50;99.90
14093;DHT22;7123;49.468;10.992;2022-07-04T08:10:03;23.60;99.90
14093;DHT22;7123;49.468;10.992;2022-07-04T08:12:30;23.90;99.90
14093;DHT22;7123;49.468;10.992;2022-07-04T08:14:57;24.00;99.90
14093;DHT22;7123;49.468;10.992;2022-07-04T08:17:31;23.90;99.90
14093;DHT22;7123;49.468;10.992;2022-07-04T08:19:58;23.90;99.90
14093;DHT22;7123;49.468;10.992;2022-07-04T08:22:25;24.00;99.90
14093;DHT22;7123;49.468;10.992;2022-07-04T08:24:52;23.90;99.90
14093;DHT22;7123;49.468;10.992;2022-07-04T08:27:19;23.80;99.90
14093;DHT22;7123;49.468;10.992;2022-07-04T08:29:46;23.80;99.90
14093;DHT22;7123;49.468;10.992;2022-07-04T08:32:14;23.80;99.90
14093;DHT22;7123;49.468;10.992;2022-07-04T08:34:41;23.80;99.90
14093;DHT22;7123;49.468;10.992;2022-07-04T08:37:09;23.80;99.90
14093;DHT22;7123;49.468;10.992;2022-07-04T08:39:36;23.70;99.90
14093;DHT22;7123;49.468;10.992;2022-07-04T08:42:06;23.70;99.90
14093;DHT22;7123;49.468;10.992;2022-07-04T08:44:38;23.60;99.90
14093;DHT22;7123;49.468;10.992;2022-07-04T08:47:09;23.60;99.90
14093;DHT22;7123;49.468;10.992;2022-07-04T08:49:46;23.80;99.90
14093;DHT22;7123;49.468;10.992;2022-07-04T08:52:14;24.00;99.90
14093;DHT22;7123;49.468;10.992;2022-07-04T08:54:45;24.20;99.90
14093;DHT22;7123;49.468;10.992;2022-07-04T08:57:31;24.30;99.90
14093;DHT22;7123;49.468;10.992;2022-07-04T09:00:16;24.30;99.90
14093;DHT22;7123;49.468;10.992;2022-07-04T09:02:43;24.20;99.90
14093;DHT22;7123;49.468;10.992;2022-07-04T09:05:10;24.20;99.90
14093;DHT22;7123;49.468;10.992;2022-07-04T09:07:37;24.10;99.90
14093;DHT22;7123;49.468;10.992;2022-07-04T09:10:04;24.10;99.90
14093;DHT22;7123;49.468;10.992;2022-07-04T09:12:31;24.10;99.90
14093;DHT22;7123;49.468;10.992;2022-07-04T09:15:19;24.00;99.90
14093;DHT22;7123;49.468;10.992;2022-07-04T09:17:46;24.10;99.90
14093;DHT22;7123;49.468;10.992;2022-07-04T09:20:15;24.10;99.90
14093;DHT22;7123;49.468;10.992;2022-07-04T09:22:42;24.00;99.90
14093;DHT22;7123;49.468;10.992;2022-07-04T09:25:10;24.00;99.90
14093;DHT22;7123;49.468;10.992;2022-07-04T09:27:51;24.00;99.90
14093;DHT22;7123;49.468;10.992;2022-07-04T09:30:20;24.10;99.90
14093;DHT22;7123;49.468;10.992;2022-07-04T09:32:49;24.30;99.90
14093;DHT22;7123;49.468;10.992;2022-07-04T09:35:21;24.40;99.90
14093;DHT22;7123;49.468;10.992;2022-07-04T09:37:51;24.60;99.90
14093;DHT22;7123;49.468;10.992;2022-07-04T09:42:58;24.70;99.90
14093;DHT22;7123;49.468;10.992;2022-07-04T09:45:26;24.60;99.90
14093;DHT22;7123;49.468;10.992;2022-07-04T09:47:55;24.50;99.90
14093;DHT22;7123;49.468;10.992;2022-07-04T09:50:24;24.40;99.90
14093;DHT22;7123;49.468;10.992;2022-07-04T09:53:00;24.30;99.90
14093;DHT22;7123;49.468;10.992;2022-07-04T09:55:36;24.30;99.90
14093;DHT22;7123;49.468;10.992;2022-07-04T09:58:11;24.50;99.90
14093;DHT22;7123;49.468;10.992;2022-07-04T10:00:45;24.60;99.90
14093;DHT22;7123;49.468;10.992;2022-07-04T10:03:30;24.60;99.90
14093;DHT22;7123;49.468;10.992;2022-07-04T10:08:29;23.90;99.90
14093;DHT22;7123;49.468;10.992;2022-07-04T10:11:00;24.00;99.90
14093;DHT22;7123;49.468;10.992;2022-07-04T10:13:34;24.20;99.90
14093;DHT22;7123;49.468;10.992;2022-07-04T10:16:01;24.30;99.90
14093;DHT22;7123;49.468;10.992;2022-07-04T10:18:28;24.30;99.90
14093;DHT22;7123;49.468;10.992;2022-07-04T10:20:56;24.20;99.90
14093;DHT22;7123;49.468;10.992;2022-07-04T10:23:24;24.20;99.90
14093;DHT22;7123;49.468;10.992;2022-07-04T10:25:53;24.30;99.90
14093;DHT22;7123;49.468;10.992;2022-07-04T10:28:22;24.50;99.90
14093;DHT22;7123;49.468;10.992;2022-07-04T10:30:56;24.50;99.90
14093;DHT22;7123;49.468;10.992;2022-07-04T10:33:28;24.50;99.90
14093;DHT22;7123;49.468;10.992;2022-07-04T10:36:03;24.50;99.90
14093;DHT22;7123;49.468;10.992;2022-07-04T10:38:32;24.60;99.90
14093;DHT22;7123;49.468;10.992;2022-07-04T10:41:04;24.70;99.90
14093;DHT22;7123;49.468;10.992;2022-07-04T10:48:52;24.70;99.90
14093;DHT22;7123;49.468;10.992;2022-07-04T10:51:35;24.90;99.90
14093;DHT22;7123;49.468;10.992;2022-07-04T10:54:05;25.00;99.90
14093;DHT22;7123;49.468;10.992;2022-07-04T10:59:29;25.20;99.90
14093;DHT22;7123;49.468;10.992;2022-07-04T11:05:03;25.10;99.90
14093;DHT22;7123;49.468;10.992;2022-07-04T11:10:20;25.10;99.90
14093;DHT22;7123;49.468;10.992;2022-07-04T11:20:29;25.30;99.90
14093;DHT22;7123;49.468;10.992;2022-07-04T11:23:10;25.40;99.90
14093;DHT22;7123;49.468;10.992;2022-07-04T11:25:38;25.40;99.90
14093;DHT22;7123;49.468;10.992;2022-07-04T11:28:26;25.40;99.90
14093;DHT22;7123;49.468;10.992;2022-07-04T11:31:12;25.40;99.90
14093;DHT22;7123;49.468;10.992;2022-07-04T11:33:41;25.50;99.90
14093;DHT22;7123;49.468;10.992;2022-07-04T11:36:17;25.50;99.90
14093;DHT22;7123;49.468;10.992;2022-07-04T11:38:54;25.50;99.90
14093;DHT22;7123;49.468;10.992;2022-07-04T11:41:42;25.40;99.90
14093;DHT22;7123;49.468;10.992;2022-07-04T11:44:30;25.40;99.90
14093;DHT22;7123;49.468;10.992;2022-07-04T11:47:21;25.40;99.90
14093;DHT22;7123;49.468;10.992;2022-07-04T11:49:56;25.40;99.90
14093;DHT22;7123;49.468;10.992;2022-07-04T11:52:25;25.60;99.90
14093;DHT22;7123;49.468;10.992;2022-07-04T11:55:17;25.80;99.90
14093;DHT22;7123;49.468;10.992;2022-07-04T11:57:49;26.10;99.90
14093;DHT22;7123;49.468;10.992;2022-07-04T12:00:18;26.10;99.90
14093;DHT22;7123;49.468;10.992;2022-07-04T12:02:46;26.10;99.90
14093;DHT22;7123;49.468;10.992;2022-07-04T12:05:15;26.10;99.90
14093;DHT22;7123;49.468;10.992;2022-07-04T12:07:44;26.10;99.90
14093;DHT22;7123;49.468;10.992;2022-07-04T12:10:31;26.10;99.90
14093;DHT22;7123;49.468;10.992;2022-07-04T12:13:00;26.10;99.90
14093;DHT22;7123;49.468;10.992;2022-07-04T12:15:43;26.10;99.90
14093;DHT22;7123;49.468;10.992;2022-07-04T12:18:25;26.10;99.90
14093;DHT22;7123;49.468;10.992;2022-07-04T12:20:54;26.10;99.90
14093;DHT22;7123;49.468;10.992;2022-07-04T12:23:22;25.90;99.90
14093;DHT22;7123;49.468;10.992;2022-07-04T12:25:52;26.00;99.90
14093;DHT22;7123;49.468;10.992;2022-07-04T12:28:19;25.90;99.90
14093;DHT22;7123;49.468;10.992;2022-07-04T12:30:56;25.90;99.90
14093;DHT22;7123;49.468;10.992;2022-07-04T12:33:25;25.90;99.90
14093;DHT22;7123;49.468;10.992;2022-07-04T12:36:05;26.10;99.90
14093;DHT22;7123;49.468;10.992;2022-07-04T12:38:38;26.30;99.90
14093;DHT22;7123;49.468;10.992;2022-07-04T12:41:09;26.20;99.90
14093;DHT22;7123;49.468;10.992;2022-07-04T12:48:54;26.20;99.90
14093;DHT22;7123;49.468;10.992;2022-07-04T12:51:23;26.40;99.90
14093;DHT22;7123;49.468;10.992;2022-07-04T12:53:54;26.50;99.90
14093;DHT22;7123;49.468;10.992;2022-07-04T12:56:40;26.50;99.90
14093;DHT22;7123;49.468;10.992;2022-07-04T12:59:14;26.50;99.90
14093;DHT22;7123;49.468;10.992;2022-07-04T13:01:42;26.70;99.90
14093;DHT22;7123;49.468;10.992;2022-07-04T13:04:10;26.80;99.90
14093;DHT22;7123;49.468;10.992;2022-07-04T13:06:37;26.80;99.90
14093;DHT22;7123;49.468;10.992;2022-07-04T13:09:05;26.90;99.90
14093;DHT22;7123;49.468;10.992;2022-07-04T13:11:34;27.00;99.90
14093;DHT22;7123;49.468;10.992;2022-07-04T13:14:20;27.00;99.90
14093;DHT22;7123;49.468;10.992;2022-07-04T13:16:46;27.20;99.90
14093;DHT22;7123;49.468;10.992;2022-07-04T13:19:13;27.50;99.90
14093;DHT22;7123;49.468;10.992;2022-07-04T13:21:40;27.70;99.90
14093;DHT22;7123;49.468;10.992;2022-07-04T13:24:07;27.70;99.90
14093;DHT22;7123;49.468;10.992;2022-07-04T13:26:34;27.70;99.90
14093;DHT22;7123;49.468;10.992;2022-07-04T13:29:00;27.70;99.90
14093;DHT22;7123;49.468;10.992;2022-07-04T13:31:28;27.80;99.90
14093;DHT22;7123;49.468;10.992;2022-07-04T13:33:55;27.80;99.90
14093;DHT22;7123;49.468;10.992;2022-07-04T13:36:22;27.80;99.90
14093;DHT22;7123;49.468;10.992;2022-07-04T13:38:50;27.80;99.90
14093;DHT22;7123;49.468;10.992;2022-07-04T13:41:34;27.80;99.90
14093;DHT22;7123;49.468;10.992;2022-07-04T13:44:02;27.70;99.90
14093;DHT22;7123;49.468;10.992;2022-07-04T13:46:29;27.70;99.90
14093;DHT22;7123;49.468;10.992;2022-07-04T13:48:55;27.60;99.90
14093;DHT22;7123;49.468;10.992;2022-07-04T13:51:22;27.40;99.90
14093;DHT22;7123;49.468;10.992;2022-07-04T13:53:49;27.50;99.90
14093;DHT22;7123;49.468;10.992;2022-07-04T13:56:17;27.80;99.90
14093;DHT22;7123;49.468;10.992;2022-07-04T13:58:45;27.90;99.90
14093;DHT22;7123;49.468;10.992;2022-07-04T14:01:13;27.90;99.90
14093;DHT22;7123;49.468;10.992;2022-07-04T14:03:47;28.00;99.90
14093;DHT22;7123;49.468;10.992;2022-07-04T14:06:15;27.90;99.90
14093;DHT22;7123;49.468;10.992;2022-07-04T14:08:42;27.90;99.90
14093;DHT22;7123;49.468;10.992;2022-07-04T14:11:09;28.10;99.60
14093;DHT22;7123;49.468;10.992;2022-07-04T14:13:37;28.30;99.90
14093;DHT22;7123;49.468;10.992;2022-07-04T14:16:06;28.50;99.90
14093;DHT22;7123;49.468;10.992;2022-07-04T14:18:33;28.60;99.90
14093;DHT22;7123;49.468;10.992;2022-07-04T14:21:00;28.40;99.90
14093;DHT22;7123;49.468;10.992;2022-07-04T14:23:27;28.30;99.80
14093;DHT22;7123;49.468;10.992;2022-07-04T14:26:11;28.00;99.90
14093;DHT22;7123;49.468;10.992;2022-07-04T14:28:39;28.00;99.90
14093;DHT22;7123;49.468;10.992;2022-07-04T14:31:06;28.20;99.90
14093;DHT22;7123;49.468;10.992;2022-07-04T14:33:33;28.40;99.20
14093;DHT22;7123;49.468;10.992;2022-07-04T14:36:01;28.50;98.00
14093;DHT22;7123;49.468;10.992;2022-07-04T14:38:28;28.70;96.90
14093;DHT22;7123;49.468;10.992;2022-07-04T14:40:56;28.50;97.80
14093;DHT22;7123;49.468;10.992;2022-07-04T14:43:23;28.50;96.00
14093;DHT22;7123;49.468;10.992;2022-07-04T14:45:50;28.60;96.60
14093;DHT22;7123;49.468;10.992;2022-07-04T14:48:17;28.80;96.50
14093;DHT22;7123;49.468;10.992;2022-07-04T14:50:46;28.80;96.50
14093;DHT22;7123;49.468;10.992;2022-07-04T14:53:14;28.80;96.40
14093;DHT22;7123;49.468;10.992;2022-07-04T14:55:42;28.80;96.20
14093;DHT22;7123;49.468;10.992;2022-07-04T14:58:09;28.70;96.00
14093;DHT22;7123;49.468;10.992;2022-07-04T15:00:35;28.70;95.70
14093;DHT22;7123;49.468;10.992;2022-07-04T15:03:02;28.70;95.30
14093;DHT22;7123;49.468;10.992;2022-07-04T15:05:29;28.70;95.20
14093;DHT22;7123;49.468;10.992;2022-07-04T15:07:56;28.90;95.10
14093;DHT22;7123;49.468;10.992;2022-07-04T15:10:23;29.30;95.00
14093;DHT22;7123;49.468;10.992;2022-07-04T15:13:10;29.90;94.30
14093;DHT22;7123;49.468;10.992;2022-07-04T15:15:38;30.10;93.70
14093;DHT22;7123;49.468;10.992;2022-07-04T15:18:10;30.00;93.30
14093;DHT22;7123;49.468;10.992;2022-07-04T15:20:38;29.90;92.70
14093;DHT22;7123;49.468;10.992;2022-07-04T15:23:24;30.20;92.30
14093;DHT22;7123;49.468;10.992;2022-07-04T15:26:10;30.60;90.80
14093;DHT22;7123;49.468;10.992;2022-07-04T15:28:37;30.60;90.70
14093;DHT22;7123;49.468;10.992;2022-07-04T15:31:04;30.60;89.80
14093;DHT22;7123;49.468;10.992;2022-07-04T15:33:31;30.50;87.30
14093;DHT22;7123;49.468;10.992;2022-07-04T15:35:57;30.40;87.00
14093;DHT22;7123;49.468;10.992;2022-07-04T15:38:24;30.60;85.40
14093;DHT22;7123;49.468;10.992;2022-07-04T15:40:51;30.90;84.30
14093;DHT22;7123;49.468;10.992;2022-07-04T15:43:18;31.30;85.00
14093;DHT22;7123;49.468;10.992;2022-07-04T15:45:45;31.70;83.60
14093;DHT22;7123;49.468;10.992;2022-07-04T15:48:12;32.00;80.10
14093;DHT22;7123;49.468;10.992;2022-07-04T15:50:39;32.20;79.40
14093;DHT22;7123;49.468;10.992;2022-07-04T15:53:06;31.70;78.90
14093;DHT22;7123;49.468;10.992;2022-07-04T15:55:33;31.70;79.90
14093;DHT22;7123;49.468;10.992;2022-07-04T15:58:00;31.70;78.30
14093;DHT22;7123;49.468;10.992;2022-07-04T16:00:27;32.00;77.40
14093;DHT22;7123;49.468;10.992;2022-07-04T16:02:54;32.20;76.50
14093;DHT22;7123;49.468;10.992;2022-07-04T16:05:20;32.00;75.70
14093;DHT22;7123;49.468;10.992;2022-07-04T16:07:47;31.80;75.50
14093;DHT22;7123;49.468;10.992;2022-07-04T16:10:14;31.90;73.80
14093;DHT22;7123;49.468;10.992;2022-07-04T16:12:41;32.20;73.10